sensor_id;sensor_type;location;lat;lon;timestamp;P1;durP1;ratioP1;P2;durP2;ratioP2
18125;SDS011;53956;52.442;13.284;2023-02-15T00:01:05;42.97;;;23.37;;
18125;SDS011;53956;52.442;13.284;2023-02-15T00:03:34;41.27;;;23.33;;
18125;SDS011;53956;52.442;13.284;2023-02-15T00:06:01;42.03;;;23.57;;
18125;SDS011;53956;52.442;13.284;2023-02-15T00:08:28;44.00;;;24.10;;
18125;SDS011;53956;52.442;13.284;2023-02-15T00:11:02;43.53;;;23.73;;
18125;SDS011;53956;52.442;13.284;2023-02-15T00:13:30;46.40;;;24.33;;
18125;SDS011;53956;52.442;13.284;2023-02-15T00:16:00;47.23;;;23.67;;
18125;SDS011;53956;52.442;13.284;2023-02-15T00:18:27;43.17;;;23.17;;
18125;SDS011;53956;52.442;13.284;2023-02-15T00:20:55;47.03;;;24.33;;
18125;SDS011;53956;52.442;13.284;2023-02-15T00:23:22;45.40;;;24.57;;
18125;SDS011;53956;52.442;13.284;2023-02-15T00:25:48;44.87;;;24.83;;
18125;SDS011;53956;52.442;13.284;2023-02-15T00:28:15;41.83;;;22.97;;
18125;SDS011;53956;52.442;13.284;2023-02-15T00:30:42;43.50;;;24.70;;
18125;SDS011;53956;52.442;13.284;2023-02-15T00:33:09;42.97;;;24.30;;
18125;SDS011;53956;52.442;13.284;2023-02-15T00:35:35;45.33;;;25.27;;
18125;SDS011;53956;52.442;13.284;2023-02-15T00:38:03;45.90;;;24.87;;
18125;SDS011;53956;52.442;13.284;2023-02-15T00:40:30;44.40;;;24.80;;
18125;SDS011;53956;52.442;13.284;2023-02-15T00:42:56;42.63;;;23.70;;
18125;SDS011;53956;52.442;13.284;2023-02-15T00:45:23;46.17;;;24.90;;
18125;SDS011;53956;52.442;13.284;2023-02-15T00:47:50;46.13;;;24.80;;
18125;SDS011;53956;52.442;13.284;2023-02-15T00:50:17;44.27;;;24.13;;
18125;SDS011;53956;52.442;13.284;2023-02-15T00:52:45;46.67;;;25.87;;
18125;SDS011;53956;52.442;13.284;2023-02-15T00:55:13;49.03;;;26.23;;
18125;SDS011;53956;52.442;13.284;2023-02-15T00:57:39;46.77;;;26.37;;
18125;SDS011;53956;52.442;13.284;2023-02-15T01:00:06;48.63;;;25.57;;
18125;SDS011;53956;52.442;13.284;2023-02-15T01:02:34;47.70;;;25.40;;
18125;SDS011;53956;52.442;13.284;2023-02-15T01:05:01;48.67;;;25.63;;
18125;SDS011;53956;52.442;13.284;2023-02-15T01:07:27;52.33;;;26.23;;
18125;SDS011;53956;52.442;13.284;2023-02-15T01:09:54;48.43;;;25.33;;
18125;SDS011;53956;52.442;13.284;2023-02-15T01:12:22;46.30;;;25.13;;
18125;SDS011;53956;52.442;13.284;2023-02-15T01:14:48;47.93;;;25.53;;
18125;SDS011;53956;52.442;13.284;2023-02-15T01:17:15;48.23;;;25.90;;
18125;SDS011;53956;52.442;13.284;2023-02-15T01:19:42;48.87;;;25.97;;
18125;SDS011;53956;52.442;13.284;2023-02-15T01:22:08;49.60;;;27.20;;
18125;SDS011;53956;52.442;13.284;2023-02-15T01:24:35;52.97;;;28.57;;
18125;SDS011;53956;52.442;13.284;2023-02-15T01:27:02;46.80;;;26.23;;
18125;SDS011;53956;52.442;13.284;2023-02-15T01:29:30;49.00;;;25.87;;
18125;SDS011;53956;52.442;13.284;2023-02-15T01:31:57;47.93;;;26.40;;
18125;SDS011;53956;52.442;13.284;2023-02-15T01:34:24;48.80;;;26.23;;
18125;SDS011;53956;52.442;13.284;2023-02-15T01:36:50;49.43;;;26.77;;
18125;SDS011;53956;52.442;13.284;2023-02-15T01:39:17;49.60;;;26.57;;
18125;SDS011;53956;52.442;13.284;2023-02-15T01:41:43;51.43;;;27.37;;
18125;SDS011;53956;52.442;13.284;2023-02-15T01:47:20;50.00;;;25.97;;
18125;SDS011;53956;52.442;13.284;2023-02-15T01:49:50;46.43;;;25.67;;
18125;SDS011;53956;52.442;13.284;2023-02-15T01:52:23;51.53;;;26.67;;
18125;SDS011;53956;52.442;13.284;2023-02-15T01:54:50;48.33;;;27.00;;
18125;SDS011;53956;52.442;13.284;2023-02-15T01:57:18;46.97;;;26.63;;
18125;SDS011;53956;52.442;13.284;2023-02-15T01:59:49;51.97;;;27.90;;
18125;SDS011;53956;52.442;13.284;2023-02-15T02:02:20;49.77;;;27.67;;
18125;SDS011;53956;52.442;13.284;2023-02-15T02:04:54;48.97;;;25.80;;
18125;SDS011;53956;52.442;13.284;2023-02-15T02:07:26;49.73;;;26.30;;
18125;SDS011;53956;52.442;13.284;2023-02-15T02:09:54;49.60;;;26.53;;
18125;SDS011;53956;52.442;13.284;2023-02-15T02:12:22;51.53;;;27.90;;
18125;SDS011;53956;52.442;13.284;2023-02-15T02:14:49;53.43;;;27.70;;
18125;SDS011;53956;52.442;13.284;2023-02-15T02:17:21;52.90;;;28.50;;
18125;SDS011;53956;52.442;13.284;2023-02-15T02:22:59;50.87;;;28.20;;
18125;SDS011;53956;52.442;13.284;2023-02-15T02:28:20;55.70;;;29.67;;
18125;SDS011;53956;52.442;13.284;2023-02-15T02:31:10;54.87;;;28.53;;
18125;SDS011;53956;52.442;13.284;2023-02-15T02:33:59;55.70;;;28.97;;
18125;SDS011;53956;52.442;13.284;2023-02-15T02:36:32;51.33;;;28.70;;
18125;SDS011;53956;52.442;13.284;2023-02-15T02:39:07;58.60;;;29.63;;
18125;SDS011;53956;52.442;13.284;2023-02-15T02:41:43;56.00;;;30.30;;
18125;SDS011;53956;52.442;13.284;2023-02-15T02:44:19;55.07;;;28.60;;
18125;SDS011;53956;52.442;13.284;2023-02-15T02:46:51;55.73;;;29.47;;
18125;SDS011;53956;52.442;13.284;2023-02-15T02:49:31;56.27;;;29.87;;
18125;SDS011;53956;52.442;13.284;2023-02-15T02:51:59;56.43;;;29.83;;
18125;SDS011;53956;52.442;13.284;2023-02-15T02:54:26;55.50;;;28.17;;
18125;SDS011;53956;52.442;13.284;2023-02-15T02:56:55;54.60;;;29.27;;
18125;SDS011;53956;52.442;13.284;2023-02-15T02:59:26;58.77;;;29.40;;
18125;SDS011;53956;52.442;13.284;2023-02-15T03:01:57;57.23;;;29.47;;
18125;SDS011;53956;52.442;13.284;2023-02-15T03:04:34;57.33;;;30.43;;
18125;SDS011;53956;52.442;13.284;2023-02-15T03:07:04;59.83;;;30.80;;
18125;SDS011;53956;52.442;13.284;2023-02-15T03:09:34;63.03;;;31.93;;
18125;SDS011;53956;52.442;13.284;2023-02-15T03:12:07;63.83;;;31.43;;
18125;SDS011;53956;52.442;13.284;2023-02-15T03:14:40;61.77;;;31.33;;
18125;SDS011;53956;52.442;13.284;2023-02-15T03:17:09;66.30;;;32.13;;
18125;SDS011;53956;52.442;13.284;2023-02-15T03:19:39;63.97;;;33.03;;
18125;SDS011;53956;52.442;13.284;2023-02-15T03:22:08;69.00;;;33.43;;
18125;SDS011;53956;52.442;13.284;2023-02-15T03:24:40;67.00;;;33.83;;
18125;SDS011;53956;52.442;13.284;2023-02-15T03:27:12;66.37;;;33.57;;
18125;SDS011;53956;52.442;13.284;2023-02-15T03:29:44;69.63;;;33.07;;
18125;SDS011;53956;52.442;13.284;2023-02-15T03:32:15;67.57;;;33.10;;
18125;SDS011;53956;52.442;13.284;2023-02-15T03:34:44;67.37;;;32.50;;
18125;SDS011;53956;52.442;13.284;2023-02-15T03:37:13;70.40;;;34.47;;
18125;SDS011;53956;52.442;13.284;2023-02-15T03:39:47;68.93;;;33.20;;
18125;SDS011;53956;52.442;13.284;2023-02-15T03:42:19;71.83;;;34.13;;
18125;SDS011;53956;52.442;13.284;2023-02-15T03:44:54;74.43;;;36.13;;
18125;SDS011;53956;52.442;13.284;2023-02-15T03:47:25;70.30;;;34.77;;
18125;SDS011;53956;52.442;13.284;2023-02-15T03:49:57;69.83;;;34.20;;
18125;SDS011;53956;52.442;13.284;2023-02-15T03:52:26;75.23;;;35.83;;
18125;SDS011;53956;52.442;13.284;2023-02-15T03:54:54;73.13;;;35.43;;
18125;SDS011;53956;52.442;13.284;2023-02-15T03:57:21;72.37;;;35.87;;
18125;SDS011;53956;52.442;13.284;2023-02-15T04:00:11;75.07;;;36.60;;
18125;SDS011;53956;52.442;13.284;2023-02-15T04:03:06;77.47;;;37.07;;
18125;SDS011;53956;52.442;13.284;2023-02-15T04:05:40;75.90;;;35.27;;
18125;SDS011;53956;52.442;13.284;2023-02-15T04:08:08;71.27;;;34.77;;
18125;SDS011;53956;52.442;13.284;2023-02-15T04:10:35;70.57;;;35.20;;
18125;SDS011;53956;52.442;13.284;2023-02-15T04:13:23;77.00;;;34.60;;
18125;SDS011;53956;52.442;13.284;2023-02-15T04:15:56;75.83;;;36.13;;
18125;SDS011;53956;52.442;13.284;2023-02-15T04:18:28;75.33;;;36.30;;
18125;SDS011;53956;52.442;13.284;2023-02-15T04:21:14;72.80;;;34.27;;
18125;SDS011;53956;52.442;13.284;2023-02-15T04:23:58;71.37;;;33.47;;
18125;SDS011;53956;52.442;13.284;2023-02-15T04:26:42;82.97;;;36.23;;
18125;SDS011;53956;52.442;13.284;2023-02-15T04:29:09;72.83;;;35.60;;
18125;SDS011;53956;52.442;13.284;2023-02-15T04:31:36;78.80;;;36.63;;
18125;SDS011;53956;52.442;13.284;2023-02-15T04:34:03;72.87;;;35.57;;
18125;SDS011;53956;52.442;13.284;2023-02-15T04:36:30;75.77;;;36.13;;
18125;SDS011;53956;52.442;13.284;2023-02-15T04:38:57;76.33;;;36.33;;
18125;SDS011;53956;52.442;13.284;2023-02-15T04:41:24;77.20;;;36.07;;
18125;SDS011;53956;52.442;13.284;2023-02-15T04:43:51;76.33;;;35.87;;
18125;SDS011;53956;52.442;13.284;2023-02-15T04:46:17;75.87;;;37.03;;
18125;SDS011;53956;52.442;13.284;2023-02-15T04:48:44;74.83;;;35.37;;
18125;SDS011;53956;52.442;13.284;2023-02-15T04:51:10;77.13;;;36.53;;
18125;SDS011;53956;52.442;13.284;2023-02-15T04:53:38;79.00;;;37.77;;
18125;SDS011;53956;52.442;13.284;2023-02-15T04:56:05;75.87;;;36.67;;
18125;SDS011;53956;52.442;13.284;2023-02-15T04:58:32;76.07;;;36.00;;
18125;SDS011;53956;52.442;13.284;2023-02-15T05:01:00;76.07;;;35.20;;
18125;SDS011;53956;52.442;13.284;2023-02-15T05:03:27;75.43;;;35.57;;
18125;SDS011;53956;52.442;13.284;2023-02-15T05:05:53;73.43;;;35.67;;
18125;SDS011;53956;52.442;13.284;2023-02-15T05:08:20;74.77;;;36.40;;
18125;SDS011;53956;52.442;13.284;2023-02-15T05:10:48;79.10;;;36.13;;
18125;SDS011;53956;52.442;13.284;2023-02-15T05:13:15;74.50;;;35.13;;
18125;SDS011;53956;52.442;13.284;2023-02-15T05:15:45;75.57;;;35.80;;
18125;SDS011;53956;52.442;13.284;2023-02-15T05:18:13;74.60;;;36.07;;
18125;SDS011;53956;52.442;13.284;2023-02-15T05:20:39;79.57;;;36.70;;
18125;SDS011;53956;52.442;13.284;2023-02-15T05:23:06;79.07;;;37.37;;
18125;SDS011;53956;52.442;13.284;2023-02-15T05:25:33;77.30;;;36.53;;
18125;SDS011;53956;52.442;13.284;2023-02-15T05:28:18;84.07;;;37.67;;
18125;SDS011;53956;52.442;13.284;2023-02-15T05:30:45;74.93;;;35.70;;
18125;SDS011;53956;52.442;13.284;2023-02-15T05:33:12;76.30;;;36.27;;
18125;SDS011;53956;52.442;13.284;2023-02-15T05:35:39;77.70;;;36.40;;
18125;SDS011;53956;52.442;13.284;2023-02-15T05:38:05;86.07;;;38.10;;
18125;SDS011;53956;52.442;13.284;2023-02-15T05:40:32;83.33;;;37.77;;
18125;SDS011;53956;52.442;13.284;2023-02-15T05:42:58;80.97;;;36.43;;
18125;SDS011;53956;52.442;13.284;2023-02-15T05:45:26;81.30;;;36.53;;
18125;SDS011;53956;52.442;13.284;2023-02-15T05:47:53;80.40;;;36.60;;
18125;SDS011;53956;52.442;13.284;2023-02-15T05:50:20;78.23;;;35.30;;
18125;SDS011;53956;52.442;13.284;2023-02-15T05:52:47;78.97;;;35.83;;
18125;SDS011;53956;52.442;13.284;2023-02-15T05:55:14;86.47;;;37.77;;
18125;SDS011;53956;52.442;13.284;2023-02-15T05:57:40;83.87;;;37.80;;
18125;SDS011;53956;52.442;13.284;2023-02-15T06:00:07;76.80;;;36.07;;
18125;SDS011;53956;52.442;13.284;2023-02-15T06:02:40;81.43;;;35.40;;
18125;SDS011;53956;52.442;13.284;2023-02-15T06:05:07;79.80;;;36.10;;
18125;SDS011;53956;52.442;13.284;2023-02-15T06:07:34;73.23;;;34.27;;
18125;SDS011;53956;52.442;13.284;2023-02-15T06:10:01;76.97;;;34.43;;
18125;SDS011;53956;52.442;13.284;2023-02-15T06:12:28;73.00;;;33.47;;
18125;SDS011;53956;52.442;13.284;2023-02-15T06:14:55;73.93;;;33.60;;
18125;SDS011;53956;52.442;13.284;2023-02-15T06:17:22;82.33;;;33.80;;
18125;SDS011;53956;52.442;13.284;2023-02-15T06:19:50;71.13;;;32.93;;
18125;SDS011;53956;52.442;13.284;2023-02-15T06:22:16;73.80;;;34.23;;
18125;SDS011;53956;52.442;13.284;2023-02-15T06:24:43;84.30;;;33.37;;
18125;SDS011;53956;52.442;13.284;2023-02-15T06:27:10;70.90;;;32.83;;
18125;SDS011;53956;52.442;13.284;2023-02-15T06:29:37;102.13;;;32.93;;
18125;SDS011;53956;52.442;13.284;2023-02-15T06:32:04;65.83;;;32.43;;
18125;SDS011;53956;52.442;13.284;2023-02-15T06:34:30;64.77;;;30.70;;
18125;SDS011;53956;52.442;13.284;2023-02-15T06:36:59;64.87;;;31.00;;
18125;SDS011;53956;52.442;13.284;2023-02-15T06:39:25;66.23;;;31.93;;
18125;SDS011;53956;52.442;13.284;2023-02-15T06:41:52;63.43;;;31.60;;
18125;SDS011;53956;52.442;13.284;2023-02-15T06:44:19;57.43;;;29.50;;
18125;SDS011;53956;52.442;13.284;2023-02-15T06:46:45;59.17;;;29.20;;
18125;SDS011;53956;52.442;13.284;2023-02-15T06:49:12;81.10;;;30.77;;
18125;SDS011;53956;52.442;13.284;2023-02-15T06:51:38;62.23;;;29.67;;
18125;SDS011;53956;52.442;13.284;2023-02-15T06:54:07;58.37;;;30.07;;
18125;SDS011;53956;52.442;13.284;2023-02-15T06:56:33;62.23;;;30.37;;
18125;SDS011;53956;52.442;13.284;2023-02-15T06:59:00;71.73;;;28.80;;
18125;SDS011;53956;52.442;13.284;2023-02-15T07:01:27;59.90;;;30.57;;
18125;SDS011;53956;52.442;13.284;2023-02-15T07:03:54;59.30;;;29.23;;
18125;SDS011;53956;52.442;13.284;2023-02-15T07:06:20;65.33;;;29.60;;
18125;SDS011;53956;52.442;13.284;2023-02-15T07:08:47;69.27;;;29.40;;
18125;SDS011;53956;52.442;13.284;2023-02-15T07:11:15;58.43;;;28.67;;
18125;SDS011;53956;52.442;13.284;2023-02-15T07:13:59;60.90;;;29.53;;
18125;SDS011;53956;52.442;13.284;2023-02-15T07:16:26;76.97;;;32.93;;
18125;SDS011;53956;52.442;13.284;2023-02-15T07:18:53;60.27;;;28.77;;
18125;SDS011;53956;52.442;13.284;2023-02-15T07:21:20;58.73;;;29.07;;
18125;SDS011;53956;52.442;13.284;2023-02-15T07:23:46;53.90;;;27.83;;
18125;SDS011;53956;52.442;13.284;2023-02-15T07:26:13;55.83;;;28.27;;
18125;SDS011;53956;52.442;13.284;2023-02-15T07:28:41;57.47;;;28.63;;
18125;SDS011;53956;52.442;13.284;2023-02-15T07:31:08;56.27;;;27.97;;
18125;SDS011;53956;52.442;13.284;2023-02-15T07:33:34;63.43;;;29.03;;
18125;SDS011;53956;52.442;13.284;2023-02-15T07:36:02;64.23;;;29.63;;
18125;SDS011;53956;52.442;13.284;2023-02-15T07:38:30;66.27;;;28.20;;
18125;SDS011;53956;52.442;13.284;2023-02-15T07:40:58;80.13;;;32.03;;
18125;SDS011;53956;52.442;13.284;2023-02-15T07:43:25;56.60;;;28.10;;
18125;SDS011;53956;52.442;13.284;2023-02-15T07:45:53;54.07;;;28.33;;
18125;SDS011;53956;52.442;13.284;2023-02-15T07:48:19;55.07;;;28.03;;
18125;SDS011;53956;52.442;13.284;2023-02-15T07:50:47;56.63;;;28.57;;
18125;SDS011;53956;52.442;13.284;2023-02-15T07:53:13;54.33;;;28.60;;
18125;SDS011;53956;52.442;13.284;2023-02-15T07:55:40;50.97;;;27.03;;
18125;SDS011;53956;52.442;13.284;2023-02-15T07:58:07;50.70;;;26.43;;
18125;SDS011;53956;52.442;13.284;2023-02-15T08:00:33;52.27;;;27.40;;
18125;SDS011;53956;52.442;13.284;2023-02-15T08:03:23;51.30;;;27.37;;
18125;SDS011;53956;52.442;13.284;2023-02-15T08:05:54;52.50;;;26.83;;
18125;SDS011;53956;52.442;13.284;2023-02-15T08:08:22;50.43;;;26.50;;
18125;SDS011;53956;52.442;13.284;2023-02-15T08:10:58;52.30;;;26.87;;
18125;SDS011;53956;52.442;13.284;2023-02-15T08:13:43;56.33;;;27.67;;
18125;SDS011;53956;52.442;13.284;2023-02-15T08:16:20;53.30;;;27.00;;
18125;SDS011;53956;52.442;13.284;2023-02-15T08:18:52;51.97;;;26.90;;
18125;SDS011;53956;52.442;13.284;2023-02-15T08:21:19;55.53;;;28.13;;
18125;SDS011;53956;52.442;13.284;2023-02-15T08:23:47;57.07;;;27.27;;
18125;SDS011;53956;52.442;13.284;2023-02-15T08:26:14;54.70;;;28.20;;
18125;SDS011;53956;52.442;13.284;2023-02-15T08:28:41;61.83;;;28.57;;
18125;SDS011;53956;52.442;13.284;2023-02-15T08:31:09;58.97;;;28.00;;
18125;SDS011;53956;52.442;13.284;2023-02-15T08:33:37;56.63;;;28.37;;
18125;SDS011;53956;52.442;13.284;2023-02-15T08:36:08;57.47;;;28.80;;
18125;SDS011;53956;52.442;13.284;2023-02-15T08:38:36;56.37;;;28.27;;
18125;SDS011;53956;52.442;13.284;2023-02-15T08:41:13;59.67;;;27.87;;
18125;SDS011;53956;52.442;13.284;2023-02-15T08:43:42;73.83;;;27.43;;
18125;SDS011;53956;52.442;13.284;2023-02-15T08:46:09;68.10;;;28.30;;
18125;SDS011;53956;52.442;13.284;2023-02-15T08:48:37;58.93;;;27.83;;
18125;SDS011;53956;52.442;13.284;2023-02-15T08:51:05;56.97;;;27.03;;
18125;SDS011;53956;52.442;13.284;2023-02-15T08:53:35;56.63;;;26.93;;
18125;SDS011;53956;52.442;13.284;2023-02-15T08:56:03;57.73;;;27.37;;
18125;SDS011;53956;52.442;13.284;2023-02-15T08:58:30;53.80;;;26.70;;
18125;SDS011;53956;52.442;13.284;2023-02-15T09:00:57;53.77;;;26.97;;
18125;SDS011;53956;52.442;13.284;2023-02-15T09:03:23;55.20;;;26.87;;
18125;SDS011;53956;52.442;13.284;2023-02-15T09:05:50;55.27;;;27.30;;
18125;SDS011;53956;52.442;13.284;2023-02-15T09:08:23;58.73;;;26.67;;
18125;SDS011;53956;52.442;13.284;2023-02-15T09:10:50;50.93;;;27.17;;
18125;SDS011;53956;52.442;13.284;2023-02-15T09:13:16;50.03;;;26.20;;
18125;SDS011;53956;52.442;13.284;2023-02-15T09:15:43;55.67;;;27.83;;
18125;SDS011;53956;52.442;13.284;2023-02-15T09:18:10;53.03;;;27.93;;
18125;SDS011;53956;52.442;13.284;2023-02-15T09:20:42;55.50;;;27.77;;
18125;SDS011;53956;52.442;13.284;2023-02-15T09:23:09;50.90;;;26.37;;
18125;SDS011;53956;52.442;13.284;2023-02-15T09:25:37;54.33;;;26.77;;
18125;SDS011;53956;52.442;13.284;2023-02-15T09:28:03;54.53;;;26.63;;
18125;SDS011;53956;52.442;13.284;2023-02-15T09:30:30;49.90;;;26.73;;
18125;SDS011;53956;52.442;13.284;2023-02-15T09:32:57;53.73;;;26.67;;
18125;SDS011;53956;52.442;13.284;2023-02-15T09:35:23;56.67;;;27.57;;
18125;SDS011;53956;52.442;13.284;2023-02-15T09:37:50;55.73;;;27.60;;
18125;SDS011;53956;52.442;13.284;2023-02-15T09:40:17;59.03;;;26.60;;
18125;SDS011;53956;52.442;13.284;2023-02-15T09:42:51;53.60;;;27.43;;
18125;SDS011;53956;52.442;13.284;2023-02-15T09:45:36;51.50;;;25.20;;
18125;SDS011;53956;52.442;13.284;2023-02-15T09:48:16;51.40;;;25.53;;
18125;SDS011;53956;52.442;13.284;2023-02-15T09:51:02;54.93;;;26.83;;
18125;SDS011;53956;52.442;13.284;2023-02-15T09:53:59;52.83;;;26.00;;
18125;SDS011;53956;52.442;13.284;2023-02-15T09:56:37;56.97;;;27.57;;
18125;SDS011;53956;52.442;13.284;2023-02-15T09:59:10;52.57;;;26.77;;
18125;SDS011;53956;52.442;13.284;2023-02-15T10:01:44;52.43;;;27.47;;
18125;SDS011;53956;52.442;13.284;2023-02-15T10:04:26;51.10;;;26.27;;
18125;SDS011;53956;52.442;13.284;2023-02-15T10:07:08;55.40;;;28.30;;
18125;SDS011;53956;52.442;13.284;2023-02-15T10:09:49;53.67;;;27.17;;
18125;SDS011;53956;52.442;13.284;2023-02-15T10:12:30;52.53;;;27.40;;
18125;SDS011;53956;52.442;13.284;2023-02-15T10:15:11;55.40;;;27.93;;
18125;SDS011;53956;52.442;13.284;2023-02-15T10:17:54;54.27;;;27.10;;
18125;SDS011;53956;52.442;13.284;2023-02-15T10:20:37;54.93;;;27.73;;
18125;SDS011;53956;52.442;13.284;2023-02-15T10:23:18;56.73;;;28.27;;
18125;SDS011;53956;52.442;13.284;2023-02-15T10:25:56;54.83;;;27.77;;
18125;SDS011;53956;52.442;13.284;2023-02-15T10:28:31;58.13;;;29.27;;
18125;SDS011;53956;52.442;13.284;2023-02-15T10:31:12;53.87;;;27.90;;
18125;SDS011;53956;52.442;13.284;2023-02-15T10:33:48;53.80;;;27.47;;
18125;SDS011;53956;52.442;13.284;2023-02-15T10:36:46;55.93;;;28.00;;
18125;SDS011;53956;52.442;13.284;2023-02-15T10:39:35;55.90;;;28.83;;
18125;SDS011;53956;52.442;13.284;2023-02-15T10:42:10;51.03;;;27.33;;
18125;SDS011;53956;52.442;13.284;2023-02-15T10:44:47;52.87;;;28.17;;
18125;SDS011;53956;52.442;13.284;2023-02-15T10:47:32;54.60;;;28.07;;
18125;SDS011;53956;52.442;13.284;2023-02-15T10:50:14;52.57;;;26.73;;
18125;SDS011;53956;52.442;13.284;2023-02-15T10:52:53;59.10;;;29.07;;
18125;SDS011;53956;52.442;13.284;2023-02-15T10:55:34;55.07;;;28.80;;
18125;SDS011;53956;52.442;13.284;2023-02-15T10:58:11;56.33;;;29.10;;
18125;SDS011;53956;52.442;13.284;2023-02-15T11:00:44;53.00;;;28.07;;
18125;SDS011;53956;52.442;13.284;2023-02-15T11:03:19;56.57;;;28.60;;
18125;SDS011;53956;52.442;13.284;2023-02-15T11:05:58;59.93;;;29.63;;
18125;SDS011;53956;52.442;13.284;2023-02-15T11:08:31;60.00;;;30.13;;
18125;SDS011;53956;52.442;13.284;2023-02-15T11:11:01;59.00;;;28.93;;
18125;SDS011;53956;52.442;13.284;2023-02-15T11:13:31;55.23;;;29.07;;
18125;SDS011;53956;52.442;13.284;2023-02-15T11:16:01;56.17;;;29.67;;
18125;SDS011;53956;52.442;13.284;2023-02-15T11:18:32;59.17;;;30.10;;
18125;SDS011;53956;52.442;13.284;2023-02-15T11:21:03;57.53;;;29.40;;
18125;SDS011;53956;52.442;13.284;2023-02-15T11:23:35;55.37;;;28.50;;
18125;SDS011;53956;52.442;13.284;2023-02-15T11:26:11;57.63;;;29.13;;
18125;SDS011;53956;52.442;13.284;2023-02-15T11:28:43;57.47;;;29.43;;
18125;SDS011;53956;52.442;13.284;2023-02-15T11:31:15;58.47;;;28.63;;
18125;SDS011;53956;52.442;13.284;2023-02-15T11:33:46;55.10;;;28.90;;
18125;SDS011;53956;52.442;13.284;2023-02-15T11:36:17;51.33;;;28.57;;
18125;SDS011;53956;52.442;13.284;2023-02-15T11:38:47;49.97;;;26.70;;
18125;SDS011;53956;52.442;13.284;2023-02-15T11:41:18;54.70;;;28.87;;
18125;SDS011;53956;52.442;13.284;2023-02-15T11:43:49;54.43;;;29.30;;
18125;SDS011;53956;52.442;13.284;2023-02-15T11:46:22;54.27;;;28.17;;
18125;SDS011;53956;52.442;13.284;2023-02-15T11:48:50;50.73;;;27.33;;
18125;SDS011;53956;52.442;13.284;2023-02-15T11:51:19;50.37;;;27.53;;
18125;SDS011;53956;52.442;13.284;2023-02-15T11:53:48;53.13;;;27.20;;
18125;SDS011;53956;52.442;13.284;2023-02-15T11:56:16;53.00;;;27.67;;
18125;SDS011;53956;52.442;13.284;2023-02-15T11:58:45;48.60;;;27.03;;
18125;SDS011;53956;52.442;13.284;2023-02-15T12:01:16;49.33;;;27.20;;
18125;SDS011;53956;52.442;13.284;2023-02-15T12:03:52;54.03;;;27.40;;
18125;SDS011;53956;52.442;13.284;2023-02-15T12:06:23;54.27;;;27.30;;
18125;SDS011;53956;52.442;13.284;2023-02-15T12:08:54;52.40;;;27.73;;
18125;SDS011;53956;52.442;13.284;2023-02-15T12:11:29;51.43;;;27.60;;
18125;SDS011;53956;52.442;13.284;2023-02-15T12:14:00;51.17;;;27.63;;
18125;SDS011;53956;52.442;13.284;2023-02-15T12:16:31;51.30;;;27.80;;
18125;SDS011;53956;52.442;13.284;2023-02-15T12:19:11;48.70;;;26.40;;
18125;SDS011;53956;52.442;13.284;2023-02-15T12:21:49;48.27;;;27.03;;
18125;SDS011;53956;52.442;13.284;2023-02-15T12:24:19;54.73;;;29.10;;
18125;SDS011;53956;52.442;13.284;2023-02-15T12:26:55;49.13;;;27.20;;
18125;SDS011;53956;52.442;13.284;2023-02-15T12:29:25;49.77;;;27.90;;
18125;SDS011;53956;52.442;13.284;2023-02-15T12:31:55;50.33;;;28.03;;
18125;SDS011;53956;52.442;13.284;2023-02-15T12:34:25;49.57;;;27.50;;
18125;SDS011;53956;52.442;13.284;2023-02-15T12:36:55;51.53;;;27.43;;
18125;SDS011;53956;52.442;13.284;2023-02-15T12:39:27;50.23;;;26.70;;
18125;SDS011;53956;52.442;13.284;2023-02-15T12:41:59;46.53;;;26.50;;
18125;SDS011;53956;52.442;13.284;2023-02-15T12:44:29;44.47;;;25.83;;
18125;SDS011;53956;52.442;13.284;2023-02-15T12:46:59;47.17;;;25.73;;
18125;SDS011;53956;52.442;13.284;2023-02-15T12:49:29;44.80;;;25.60;;
18125;SDS011;53956;52.442;13.284;2023-02-15T12:51:57;45.20;;;25.63;;
18125;SDS011;53956;52.442;13.284;2023-02-15T12:54:28;44.20;;;24.83;;
18125;SDS011;53956;52.442;13.284;2023-02-15T12:56:58;44.57;;;24.70;;
18125;SDS011;53956;52.442;13.284;2023-02-15T12:59:25;43.37;;;23.83;;
18125;SDS011;53956;52.442;13.284;2023-02-15T13:01:52;42.97;;;24.53;;
18125;SDS011;53956;52.442;13.284;2023-02-15T13:04:21;41.73;;;24.37;;
18125;SDS011;53956;52.442;13.284;2023-02-15T13:06:52;40.60;;;23.43;;
18125;SDS011;53956;52.442;13.284;2023-02-15T13:09:24;42.93;;;24.03;;
18125;SDS011;53956;52.442;13.284;2023-02-15T13:12:08;40.77;;;23.80;;
18125;SDS011;53956;52.442;13.284;2023-02-15T13:14:41;41.03;;;22.80;;
18125;SDS011;53956;52.442;13.284;2023-02-15T13:17:10;40.03;;;23.27;;
18125;SDS011;53956;52.442;13.284;2023-02-15T13:19:39;38.57;;;22.63;;
18125;SDS011;53956;52.442;13.284;2023-02-15T13:22:12;37.70;;;22.50;;
18125;SDS011;53956;52.442;13.284;2023-02-15T13:24:41;40.57;;;22.23;;
18125;SDS011;53956;52.442;13.284;2023-02-15T13:27:12;37.03;;;22.87;;
18125;SDS011;53956;52.442;13.284;2023-02-15T13:29:42;40.37;;;22.80;;
18125;SDS011;53956;52.442;13.284;2023-02-15T13:32:12;38.67;;;23.13;;
18125;SDS011;53956;52.442;13.284;2023-02-15T13:34:51;38.40;;;23.07;;
18125;SDS011;53956;52.442;13.284;2023-02-15T13:37:23;38.23;;;22.57;;
18125;SDS011;53956;52.442;13.284;2023-02-15T13:40:02;35.73;;;21.73;;
18125;SDS011;53956;52.442;13.284;2023-02-15T13:42:37;35.97;;;21.37;;
18125;SDS011;53956;52.442;13.284;2023-02-15T13:45:09;34.93;;;20.93;;
18125;SDS011;53956;52.442;13.284;2023-02-15T13:47:54;34.87;;;21.53;;
18125;SDS011;53956;52.442;13.284;2023-02-15T13:50:33;39.77;;;21.10;;
18125;SDS011;53956;52.442;13.284;2023-02-15T13:53:20;34.73;;;20.93;;
18125;SDS011;53956;52.442;13.284;2023-02-15T13:55:53;32.80;;;19.70;;
18125;SDS011;53956;52.442;13.284;2023-02-15T13:58:30;34.67;;;20.87;;
18125;SDS011;53956;52.442;13.284;2023-02-15T14:01:19;32.80;;;20.17;;
18125;SDS011;53956;52.442;13.284;2023-02-15T14:07:20;32.73;;;19.10;;
18125;SDS011;53956;52.442;13.284;2023-02-15T14:10:16;33.50;;;19.93;;
18125;SDS011;53956;52.442;13.284;2023-02-15T14:12:58;36.37;;;20.30;;
18125;SDS011;53956;52.442;13.284;2023-02-15T14:15:38;31.53;;;19.77;;
18125;SDS011;53956;52.442;13.284;2023-02-15T14:18:12;32.50;;;19.80;;
18125;SDS011;53956;52.442;13.284;2023-02-15T14:20:51;29.40;;;18.30;;
18125;SDS011;53956;52.442;13.284;2023-02-15T14:23:29;30.70;;;19.07;;
18125;SDS011;53956;52.442;13.284;2023-02-15T14:26:06;31.77;;;18.60;;
18125;SDS011;53956;52.442;13.284;2023-02-15T14:28:40;27.60;;;17.43;;
18125;SDS011;53956;52.442;13.284;2023-02-15T14:31:12;26.27;;;16.57;;
18125;SDS011;53956;52.442;13.284;2023-02-15T14:33:41;28.23;;;17.23;;
18125;SDS011;53956;52.442;13.284;2023-02-15T14:36:16;34.17;;;17.77;;
18125;SDS011;53956;52.442;13.284;2023-02-15T14:38:51;23.53;;;16.10;;
18125;SDS011;53956;52.442;13.284;2023-02-15T14:41:27;26.43;;;16.00;;
18125;SDS011;53956;52.442;13.284;2023-02-15T14:44:01;23.77;;;15.80;;